sensor_id;sensor_type;location;lat;lon;timestamp;temperature;humidity
35559;DHT22;21661;50.794;-1.066;2023-05-10T00:00:09;12.90;99.90
35559;DHT22;21661;50.794;-1.066;2023-05-10T00:02:34;12.90;99.90
35559;DHT22;21661;50.794;-1.066;2023-05-10T00:05:00;12.90;99.90
35559;DHT22;21661;50.794;-1.066;2023-05-10T00:07:26;12.90;99.90
35559;DHT22;21661;50.794;-1.066;2023-05-10T00:09:52;12.90;99.90
35559;DHT22;21661;50.794;-1.066;2023-05-10T00:12:17;12.90;99.90
35559;DHT22;21661;50.794;-1.066;2023-05-10T00:14:43;12.90;99.90
35559;DHT22;21661;50.794;-1.066;2023-05-10T00:17:09;12.90;99.90
35559;DHT22;21661;50.794;-1.066;2023-05-10T00:19:34;12.90;99.90
35559;DHT22;21661;50.794;-1.066;2023-05-10T00:22:00;12.90;99.90
35559;DHT22;21661;50.794;-1.066;2023-05-10T00:24:25;12.90;99.90
35559;DHT22;21661;50.794;-1.066;2023-05-10T00:26:51;13.00;99.90
35559;DHT22;21661;50.794;-1.066;2023-05-10T00:29:16;12.90;99.90
35559;DHT22;21661;50.794;-1.066;2023-05-10T00:31:42;12.90;99.90
35559;DHT22;21661;50.794;-1.066;2023-05-10T00:34:08;13.00;99.90
35559;DHT22;21661;50.794;-1.066;2023-05-10T00:36:33;13.00;99.90
35559;DHT22;21661;50.794;-1.066;2023-05-10T00:38:59;12.90;99.90
35559;DHT22;21661;50.794;-1.066;2023-05-10T00:41:24;12.90;99.90
35559;DHT22;21661;50.794;-1.066;2023-05-10T00:43:50;12.90;99.90
35559;DHT22;21661;50.794;-1.066;2023-05-10T00:46:16;12.90;99.90
35559;DHT22;21661;50.794;-1.066;2023-05-10T00:48:43;13.00;99.90
35559;DHT22;21661;50.794;-1.066;2023-05-10T00:51:08;12.90;99.90
35559;DHT22;21661;50.794;-1.066;2023-05-10T00:53:34;12.90;99.90
35559;DHT22;21661;50.794;-1.066;2023-05-10T00:56:00;13.00;99.90
35559;DHT22;21661;50.794;-1.066;2023-05-10T00:58:27;13.00;99.90
35559;DHT22;21661;50.794;-1.066;2023-05-10T01:00:55;12.90;99.90
35559;DHT22;21661;50.794;-1.066;2023-05-10T01:03:21;12.90;99.90
35559;DHT22;21661;50.794;-1.066;2023-05-10T01:05:47;13.00;99.90
35559;DHT22;21661;50.794;-1.066;2023-05-10T01:08:12;12.90;99.90
35559;DHT22;21661;50.794;-1.066;2023-05-10T01:10:38;13.00;99.90
35559;DHT22;21661;50.794;-1.066;2023-05-10T01:13:04;12.90;99.90
35559;DHT22;21661;50.794;-1.066;2023-05-10T01:15:30;13.00;99.90
35559;DHT22;21661;50.794;-1.066;2023-05-10T01:17:56;12.90;99.90
35559;DHT22;21661;50.794;-1.066;2023-05-10T01:20:23;12.90;99.90
35559;DHT22;21661;50.794;-1.066;2023-05-10T01:23:11;12.90;99.90
35559;DHT22;21661;50.794;-1.066;2023-05-10T01:34:02;12.80;99.90
35559;DHT22;21661;50.794;-1.066;2023-05-10T01:36:38;12.80;99.90
35559;DHT22;21661;50.794;-1.066;2023-05-10T01:39:11;12.80;99.90
35559;DHT22;21661;50.794;-1.066;2023-05-10T01:41:54;12.90;99.90
35559;DHT22;21661;50.794;-1.066;2023-05-10T01:47:14;12.80;99.90
35559;DHT22;21661;50.794;-1.066;2023-05-10T01:49:49;12.90;99.90
35559;DHT22;21661;50.794;-1.066;2023-05-10T01:52:18;12.80;99.90
35559;DHT22;21661;50.794;-1.066;2023-05-10T01:55:14;12.80;99.90
35559;DHT22;21661;50.794;-1.066;2023-05-10T01:57:43;12.80;99.90
35559;DHT22;21661;50.794;-1.066;2023-05-10T02:00:10;12.80;99.90
35559;DHT22;21661;50.794;-1.066;2023-05-10T02:02:39;12.80;99.90
35559;DHT22;21661;50.794;-1.066;2023-05-10T02:05:08;12.80;99.90
35559;DHT22;21661;50.794;-1.066;2023-05-10T02:07:35;12.70;99.90
35559;DHT22;21661;50.794;-1.066;2023-05-10T02:10:03;12.70;99.90
35559;DHT22;21661;50.794;-1.066;2023-05-10T02:12:31;12.70;99.90
35559;DHT22;21661;50.794;-1.066;2023-05-10T02:14:59;12.60;99.90
35559;DHT22;21661;50.794;-1.066;2023-05-10T02:17:28;12.60;99.90
35559;DHT22;21661;50.794;-1.066;2023-05-10T02:19:55;12.60;99.90
35559;DHT22;21661;50.794;-1.066;2023-05-10T02:22:22;12.50;99.90
35559;DHT22;21661;50.794;-1.066;2023-05-10T02:24:49;12.50;99.90
35559;DHT22;21661;50.794;-1.066;2023-05-10T02:27:16;12.40;99.90
35559;DHT22;21661;50.794;-1.066;2023-05-10T02:29:42;12.40;99.90
35559;DHT22;21661;50.794;-1.066;2023-05-10T02:32:10;12.30;99.90
35559;DHT22;21661;50.794;-1.066;2023-05-10T02:34:36;12.20;99.90
35559;DHT22;21661;50.794;-1.066;2023-05-10T02:37:02;12.30;99.90
35559;DHT22;21661;50.794;-1.066;2023-05-10T02:39:29;12.20;99.90
35559;DHT22;21661;50.794;-1.066;2023-05-10T02:41:57;12.20;99.90
35559;DHT22;21661;50.794;-1.066;2023-05-10T02:44:23;12.10;99.90
35559;DHT22;21661;50.794;-1.066;2023-05-10T02:46:51;12.10;99.90
35559;DHT22;21661;50.794;-1.066;2023-05-10T02:49:18;12.10;99.90
35559;DHT22;21661;50.794;-1.066;2023-05-10T02:51:56;12.10;99.90
35559;DHT22;21661;50.794;-1.066;2023-05-10T02:54:30;12.00;99.90
35559;DHT22;21661;50.794;-1.066;2023-05-10T02:56:58;12.00;99.90
35559;DHT22;21661;50.794;-1.066;2023-05-10T02:59:26;12.00;99.90
35559;DHT22;21661;50.794;-1.066;2023-05-10T03:01:52;12.00;99.90
35559;DHT22;21661;50.794;-1.066;2023-05-10T03:04:18;12.00;99.90
35559;DHT22;21661;50.794;-1.066;2023-05-10T03:06:44;11.90;99.90
35559;DHT22;21661;50.794;-1.066;2023-05-10T03:09:10;12.00;99.90
35559;DHT22;21661;50.794;-1.066;2023-05-10T03:17:06;12.10;99.90
35559;DHT22;21661;50.794;-1.066;2023-05-10T03:19:43;12.10;99.90
35559;DHT22;21661;50.794;-1.066;2023-05-10T03:22:10;12.10;99.90
35559;DHT22;21661;50.794;-1.066;2023-05-10T03:24:39;12.10;99.90
35559;DHT22;21661;50.794;-1.066;2023-05-10T03:27:07;12.10;99.90
35559;DHT22;21661;50.794;-1.066;2023-05-10T03:29:33;12.10;99.90
35559;DHT22;21661;50.794;-1.066;2023-05-10T03:31:59;12.10;99.90
35559;DHT22;21661;50.794;-1.066;2023-05-10T03:34:25;12.10;99.90
35559;DHT22;21661;50.794;-1.066;2023-05-10T03:36:51;12.10;99.90
35559;DHT22;21661;50.794;-1.066;2023-05-10T03:39:17;12.10;99.90
35559;DHT22;21661;50.794;-1.066;2023-05-10T03:41:42;12.10;99.90
35559;DHT22;21661;50.794;-1.066;2023-05-10T03:44:08;12.10;99.90
35559;DHT22;21661;50.794;-1.066;2023-05-10T03:46:34;12.10;99.90
35559;DHT22;21661;50.794;-1.066;2023-05-10T03:48:59;12.10;99.90
35559;DHT22;21661;50.794;-1.066;2023-05-10T03:51:25;12.10;99.90
35559;DHT22;21661;50.794;-1.066;2023-05-10T03:53:54;12.10;99.90
35559;DHT22;21661;50.794;-1.066;2023-05-10T03:56:19;12.10;99.90
35559;DHT22;21661;50.794;-1.066;2023-05-10T03:58:46;12.10;99.90
35559;DHT22;21661;50.794;-1.066;2023-05-10T04:01:11;12.10;99.90
35559;DHT22;21661;50.794;-1.066;2023-05-10T04:03:37;12.00;99.90
35559;DHT22;21661;50.794;-1.066;2023-05-10T04:06:04;12.00;99.90
35559;DHT22;21661;50.794;-1.066;2023-05-10T04:08:30;12.00;99.90
35559;DHT22;21661;50.794;-1.066;2023-05-10T04:11:08;12.00;99.90
35559;DHT22;21661;50.794;-1.066;2023-05-10T04:13:34;11.90;99.90
35559;DHT22;21661;50.794;-1.066;2023-05-10T04:16:00;11.90;99.90
35559;DHT22;21661;50.794;-1.066;2023-05-10T04:18:26;11.90;99.90
35559;DHT22;21661;50.794;-1.066;2023-05-10T04:20:51;12.00;99.90
35559;DHT22;21661;50.794;-1.066;2023-05-10T04:23:17;12.00;99.90
35559;DHT22;21661;50.794;-1.066;2023-05-10T04:25:42;11.90;99.90
35559;DHT22;21661;50.794;-1.066;2023-05-10T04:28:08;11.90;99.90
35559;DHT22;21661;50.794;-1.066;2023-05-10T04:30:34;11.90;99.90
35559;DHT22;21661;50.794;-1.066;2023-05-10T04:33:00;11.90;99.90
35559;DHT22;21661;50.794;-1.066;2023-05-10T04:35:27;11.90;99.90
35559;DHT22;21661;50.794;-1.066;2023-05-10T04:37:53;11.90;99.90
35559;DHT22;21661;50.794;-1.066;2023-05-10T04:40:19;11.90;99.90
35559;DHT22;21661;50.794;-1.066;2023-05-10T04:42:45;11.90;99.90
35559;DHT22;21661;50.794;-1.066;2023-05-10T04:45:11;11.80;99.90
35559;DHT22;21661;50.794;-1.066;2023-05-10T04:47:36;11.80;99.90
35559;DHT22;21661;50.794;-1.066;2023-05-10T04:50:06;11.80;99.90
35559;DHT22;21661;50.794;-1.066;2023-05-10T04:52:32;11.80;99.90
35559;DHT22;21661;50.794;-1.066;2023-05-10T04:54:57;11.80;99.90
35559;DHT22;21661;50.794;-1.066;2023-05-10T04:57:23;11.80;99.90
35559;DHT22;21661;50.794;-1.066;2023-05-10T04:59:48;11.80;99.90
35559;DHT22;21661;50.794;-1.066;2023-05-10T05:02:14;11.80;99.90
35559;DHT22;21661;50.794;-1.066;2023-05-10T05:04:39;11.80;99.90
35559;DHT22;21661;50.794;-1.066;2023-05-10T05:07:05;11.70;99.90
35559;DHT22;21661;50.794;-1.066;2023-05-10T05:09:30;11.70;99.90
35559;DHT22;21661;50.794;-1.066;2023-05-10T05:11:57;11.80;99.90
35559;DHT22;21661;50.794;-1.066;2023-05-10T05:14:23;11.70;99.90
35559;DHT22;21661;50.794;-1.066;2023-05-10T05:16:51;11.70;99.90
35559;DHT22;21661;50.794;-1.066;2023-05-10T05:19:17;11.80;99.90
35559;DHT22;21661;50.794;-1.066;2023-05-10T05:21:42;11.70;99.90
35559;DHT22;21661;50.794;-1.066;2023-05-10T05:24:08;11.70;99.90
35559;DHT22;21661;50.794;-1.066;2023-05-10T05:26:35;11.70;99.90
35559;DHT22;21661;50.794;-1.066;2023-05-10T05:29:01;11.70;99.90
35559;DHT22;21661;50.794;-1.066;2023-05-10T05:31:27;11.60;99.90
35559;DHT22;21661;50.794;-1.066;2023-05-10T05:33:53;11.60;99.90
35559;DHT22;21661;50.794;-1.066;2023-05-10T05:36:18;11.60;99.90
35559;DHT22;21661;50.794;-1.066;2023-05-10T05:38:44;11.60;99.90
35559;DHT22;21661;50.794;-1.066;2023-05-10T05:41:10;11.60;99.90
35559;DHT22;21661;50.794;-1.066;2023-05-10T05:43:35;11.70;99.90
35559;DHT22;21661;50.794;-1.066;2023-05-10T05:46:01;11.70;99.90
35559;DHT22;21661;50.794;-1.066;2023-05-10T05:48:27;11.80;99.90
35559;DHT22;21661;50.794;-1.066;2023-05-10T05:50:55;11.70;99.90
35559;DHT22;21661;50.794;-1.066;2023-05-10T05:53:22;11.70;99.90
35559;DHT22;21661;50.794;-1.066;2023-05-10T05:55:54;11.70;99.90
35559;DHT22;21661;50.794;-1.066;2023-05-10T05:58:21;11.60;99.90
35559;DHT22;21661;50.794;-1.066;2023-05-10T06:00:47;11.60;99.90
35559;DHT22;21661;50.794;-1.066;2023-05-10T06:03:12;11.70;99.90
35559;DHT22;21661;50.794;-1.066;2023-05-10T06:05:38;11.70;99.90
35559;DHT22;21661;50.794;-1.066;2023-05-10T06:08:04;11.70;99.90
35559;DHT22;21661;50.794;-1.066;2023-05-10T06:10:29;11.80;99.90
35559;DHT22;21661;50.794;-1.066;2023-05-10T06:12:55;11.80;99.90
35559;DHT22;21661;50.794;-1.066;2023-05-10T06:15:21;11.80;99.90
35559;DHT22;21661;50.794;-1.066;2023-05-10T06:17:47;11.80;99.90
35559;DHT22;21661;50.794;-1.066;2023-05-10T06:20:14;11.80;99.90
35559;DHT22;21661;50.794;-1.066;2023-05-10T06:22:40;11.90;99.90
35559;DHT22;21661;50.794;-1.066;2023-05-10T06:25:07;11.90;99.90
35559;DHT22;21661;50.794;-1.066;2023-05-10T06:27:33;12.00;99.90
35559;DHT22;21661;50.794;-1.066;2023-05-10T06:29:58;12.10;99.90
35559;DHT22;21661;50.794;-1.066;2023-05-10T06:32:24;12.20;99.90
35559;DHT22;21661;50.794;-1.066;2023-05-10T06:34:50;12.30;99.90
35559;DHT22;21661;50.794;-1.066;2023-05-10T06:37:15;12.30;99.90
35559;DHT22;21661;50.794;-1.066;2023-05-10T06:39:41;12.40;99.90
35559;DHT22;21661;50.794;-1.066;2023-05-10T06:42:06;12.50;99.90
35559;DHT22;21661;50.794;-1.066;2023-05-10T06:44:32;12.50;99.90
35559;DHT22;21661;50.794;-1.066;2023-05-10T06:46:57;12.60;99.90
35559;DHT22;21661;50.794;-1.066;2023-05-10T06:49:23;12.70;99.90
35559;DHT22;21661;50.794;-1.066;2023-05-10T06:51:49;12.60;99.90
35559;DHT22;21661;50.794;-1.066;2023-05-10T06:54:14;12.70;99.90
35559;DHT22;21661;50.794;-1.066;2023-05-10T06:56:40;12.70;99.90
35559;DHT22;21661;50.794;-1.066;2023-05-10T06:59:05;12.80;99.90
35559;DHT22;21661;50.794;-1.066;2023-05-10T07:01:32;12.80;99.90
35559;DHT22;21661;50.794;-1.066;2023-05-10T07:03:57;12.80;99.90
35559;DHT22;21661;50.794;-1.066;2023-05-10T07:06:23;12.90;99.90
35559;DHT22;21661;50.794;-1.066;2023-05-10T07:08:48;12.90;99.90
35559;DHT22;21661;50.794;-1.066;2023-05-10T07:11:14;12.90;99.90
35559;DHT22;21661;50.794;-1.066;2023-05-10T07:13:39;12.90;99.90
35559;DHT22;21661;50.794;-1.066;2023-05-10T07:16:09;12.90;99.90
35559;DHT22;21661;50.794;-1.066;2023-05-10T07:18:35;13.00;99.90
35559;DHT22;21661;50.794;-1.066;2023-05-10T07:21:01;13.00;99.90
35559;DHT22;21661;50.794;-1.066;2023-05-10T07:23:27;13.00;99.90
35559;DHT22;21661;50.794;-1.066;2023-05-10T07:25:52;13.10;99.90
35559;DHT22;21661;50.794;-1.066;2023-05-10T07:28:18;13.10;99.90
35559;DHT22;21661;50.794;-1.066;2023-05-10T07:30:45;13.10;99.90
35559;DHT22;21661;50.794;-1.066;2023-05-10T07:33:13;13.10;99.90
35559;DHT22;21661;50.794;-1.066;2023-05-10T07:35:39;13.10;99.90
35559;DHT22;21661;50.794;-1.066;2023-05-10T07:38:04;13.10;99.90
35559;DHT22;21661;50.794;-1.066;2023-05-10T07:40:30;13.20;99.90
35559;DHT22;21661;50.794;-1.066;2023-05-10T07:42:56;13.20;99.90
35559;DHT22;21661;50.794;-1.066;2023-05-10T07:45:22;13.30;99.90
35559;DHT22;21661;50.794;-1.066;2023-05-10T07:47:48;13.30;99.90
35559;DHT22;21661;50.794;-1.066;2023-05-10T07:50:14;13.30;99.90
35559;DHT22;21661;50.794;-1.066;2023-05-10T07:52:39;13.40;99.90
35559;DHT22;21661;50.794;-1.066;2023-05-10T07:55:05;13.50;99.90
35559;DHT22;21661;50.794;-1.066;2023-05-10T07:57:33;13.50;99.90
35559;DHT22;21661;50.794;-1.066;2023-05-10T07:59:59;13.60;99.90
35559;DHT22;21661;50.794;-1.066;2023-05-10T08:02:25;13.60;99.90
35559;DHT22;21661;50.794;-1.066;2023-05-10T08:04:50;13.70;99.90
35559;DHT22;21661;50.794;-1.066;2023-05-10T08:07:17;13.80;99.90
35559;DHT22;21661;50.794;-1.066;2023-05-10T08:09:42;13.90;99.90
35559;DHT22;21661;50.794;-1.066;2023-05-10T08:12:08;14.00;99.90
35559;DHT22;21661;50.794;-1.066;2023-05-10T08:14:34;14.10;99.90
35559;DHT22;21661;50.794;-1.066;2023-05-10T08:17:02;14.10;99.90
35559;DHT22;21661;50.794;-1.066;2023-05-10T08:19:28;14.20;99.90
35559;DHT22;21661;50.794;-1.066;2023-05-10T08:21:53;14.30;99.90
35559;DHT22;21661;50.794;-1.066;2023-05-10T08:24:21;14.40;99.90
35559;DHT22;21661;50.794;-1.066;2023-05-10T08:26:46;14.50;99.90
35559;DHT22;21661;50.794;-1.066;2023-05-10T08:29:13;14.60;99.90
35559;DHT22;21661;50.794;-1.066;2023-05-10T08:31:39;14.70;99.90
35559;DHT22;21661;50.794;-1.066;2023-05-10T08:34:04;14.80;99.90
35559;DHT22;21661;50.794;-1.066;2023-05-10T08:36:30;14.90;99.90
35559;DHT22;21661;50.794;-1.066;2023-05-10T08:38:57;15.00;99.90
35559;DHT22;21661;50.794;-1.066;2023-05-10T08:41:24;15.10;99.90
35559;DHT22;21661;50.794;-1.066;2023-05-10T08:43:52;15.20;99.90
35559;DHT22;21661;50.794;-1.066;2023-05-10T08:46:19;15.20;99.90
35559;DHT22;21661;50.794;-1.066;2023-05-10T08:48:46;15.20;99.90
35559;DHT22;21661;50.794;-1.066;2023-05-10T08:51:19;15.30;99.90
35559;DHT22;21661;50.794;-1.066;2023-05-10T08:53:45;15.40;99.90
35559;DHT22;21661;50.794;-1.066;2023-05-10T08:56:11;15.40;99.90
35559;DHT22;21661;50.794;-1.066;2023-05-10T08:58:37;15.40;99.90
35559;DHT22;21661;50.794;-1.066;2023-05-10T09:01:03;15.40;99.90
35559;DHT22;21661;50.794;-1.066;2023-05-10T09:03:30;15.50;99.90
35559;DHT22;21661;50.794;-1.066;2023-05-10T09:05:56;15.60;99.90
35559;DHT22;21661;50.794;-1.066;2023-05-10T09:08:25;15.70;99.90
35559;DHT22;21661;50.794;-1.066;2023-05-10T09:10:51;15.70;99.90
35559;DHT22;21661;50.794;-1.066;2023-05-10T09:13:18;15.70;99.90
35559;DHT22;21661;50.794;-1.066;2023-05-10T09:15:45;15.70;99.90
35559;DHT22;21661;50.794;-1.066;2023-05-10T09:18:11;15.80;99.90
35559;DHT22;21661;50.794;-1.066;2023-05-10T09:20:36;15.80;99.90
35559;DHT22;21661;50.794;-1.066;2023-05-10T09:23:02;15.80;99.90
35559;DHT22;21661;50.794;-1.066;2023-05-10T09:25:28;15.80;99.90
35559;DHT22;21661;50.794;-1.066;2023-05-10T09:27:53;15.70;99.90
35559;DHT22;21661;50.794;-1.066;2023-05-10T09:32:50;15.60;99.90
35559;DHT22;21661;50.794;-1.066;2023-05-10T09:35:18;15.50;99.90
35559;DHT22;21661;50.794;-1.066;2023-05-10T09:37:51;15.60;99.90
35559;DHT22;21661;50.794;-1.066;2023-05-10T09:40:21;15.80;99.90
35559;DHT22;21661;50.794;-1.066;2023-05-10T09:42:58;15.90;99.90
35559;DHT22;21661;50.794;-1.066;2023-05-10T09:45:25;16.00;99.90
35559;DHT22;21661;50.794;-1.066;2023-05-10T09:47:51;16.10;99.90
35559;DHT22;21661;50.794;-1.066;2023-05-10T09:50:17;16.20;99.90
35559;DHT22;21661;50.794;-1.066;2023-05-10T09:52:50;16.30;99.90
35559;DHT22;21661;50.794;-1.066;2023-05-10T09:55:24;16.40;99.90
35559;DHT22;21661;50.794;-1.066;2023-05-10T09:57:59;16.50;99.90
35559;DHT22;21661;50.794;-1.066;2023-05-10T10:00:25;16.40;99.90
35559;DHT22;21661;50.794;-1.066;2023-05-10T10:02:58;16.40;99.90
35559;DHT22;21661;50.794;-1.066;2023-05-10T10:05:32;16.40;99.90
35559;DHT22;21661;50.794;-1.066;2023-05-10T10:07:59;16.50;99.90
35559;DHT22;21661;50.794;-1.066;2023-05-10T10:10:25;16.70;99.90
35559;DHT22;21661;50.794;-1.066;2023-05-10T10:12:52;16.70;99.90
35559;DHT22;21661;50.794;-1.066;2023-05-10T10:15:18;16.80;99.90
35559;DHT22;21661;50.794;-1.066;2023-05-10T10:17:44;16.70;99.90
35559;DHT22;21661;50.794;-1.066;2023-05-10T10:20:10;16.60;99.90
35559;DHT22;21661;50.794;-1.066;2023-05-10T10:22:37;16.50;99.90
35559;DHT22;21661;50.794;-1.066;2023-05-10T10:25:04;16.50;99.90
35559;DHT22;21661;50.794;-1.066;2023-05-10T10:35:34;16.60;99.90
35559;DHT22;21661;50.794;-1.066;2023-05-10T10:38:00;16.60;99.90
35559;DHT22;21661;50.794;-1.066;2023-05-10T10:40:31;16.80;99.90
35559;DHT22;21661;50.794;-1.066;2023-05-10T10:42:58;16.80;99.90
35559;DHT22;21661;50.794;-1.066;2023-05-10T10:45:24;16.90;99.90
35559;DHT22;21661;50.794;-1.066;2023-05-10T10:48:22;16.90;99.90
35559;DHT22;21661;50.794;-1.066;2023-05-10T10:50:47;17.00;99.90
35559;DHT22;21661;50.794;-1.066;2023-05-10T10:53:21;16.90;99.90
35559;DHT22;21661;50.794;-1.066;2023-05-10T10:55:47;16.90;99.90
35559;DHT22;21661;50.794;-1.066;2023-05-10T10:58:29;16.90;99.90
35559;DHT22;21661;50.794;-1.066;2023-05-10T11:01:16;17.00;99.90
35559;DHT22;21661;50.794;-1.066;2023-05-10T11:04:17;17.10;99.90
35559;DHT22;21661;50.794;-1.066;2023-05-10T11:06:43;16.90;99.90
35559;DHT22;21661;50.794;-1.066;2023-05-10T11:09:11;16.90;99.90
35559;DHT22;21661;50.794;-1.066;2023-05-10T11:11:50;16.70;99.90
35559;DHT22;21661;50.794;-1.066;2023-05-10T11:14:20;16.60;99.90
35559;DHT22;21661;50.794;-1.066;2023-05-10T11:16:47;16.50;99.90
35559;DHT22;21661;50.794;-1.066;2023-05-10T11:19:14;16.40;99.90
35559;DHT22;21661;50.794;-1.066;2023-05-10T11:24:31;16.30;99.90
35559;DHT22;21661;50.794;-1.066;2023-05-10T11:26:57;16.10;99.90
35559;DHT22;21661;50.794;-1.066;2023-05-10T11:29:22;15.90;99.90
35559;DHT22;21661;50.794;-1.066;2023-05-10T11:31:49;15.60;99.90
35559;DHT22;21661;50.794;-1.066;2023-05-10T11:36:52;15.20;99.90
35559;DHT22;21661;50.794;-1.066;2023-05-10T11:39:19;15.10;99.90
35559;DHT22;21661;50.794;-1.066;2023-05-10T11:41:48;15.10;99.90
35559;DHT22;21661;50.794;-1.066;2023-05-10T11:44:14;15.10;99.90
35559;DHT22;21661;50.794;-1.066;2023-05-10T11:46:39;15.20;99.90
35559;DHT22;21661;50.794;-1.066;2023-05-10T11:49:07;15.30;99.90
35559;DHT22;21661;50.794;-1.066;2023-05-10T11:51:36;15.50;99.90
35559;DHT22;21661;50.794;-1.066;2023-05-10T11:54:06;15.60;99.90
35559;DHT22;21661;50.794;-1.066;2023-05-10T11:56:33;15.60;99.90
35559;DHT22;21661;50.794;-1.066;2023-05-10T11:58:58;15.80;99.90
35559;DHT22;21661;50.794;-1.066;2023-05-10T12:01:26;15.90;99.90
35559;DHT22;21661;50.794;-1.066;2023-05-10T12:03:54;16.10;99.90
35559;DHT22;21661;50.794;-1.066;2023-05-10T12:06:21;16.30;99.90
35559;DHT22;21661;50.794;-1.066;2023-05-10T12:08:48;16.60;99.90
35559;DHT22;21661;50.794;-1.066;2023-05-10T12:11:17;16.70;99.90
35559;DHT22;21661;50.794;-1.066;2023-05-10T12:13:44;17.00;99.90
35559;DHT22;21661;50.794;-1.066;2023-05-10T12:16:16;17.10;99.90
35559;DHT22;21661;50.794;-1.066;2023-05-10T12:18:42;17.00;99.90
35559;DHT22;21661;50.794;-1.066;2023-05-10T12:21:10;16.90;99.90
35559;DHT22;21661;50.794;-1.066;2023-05-10T12:23:37;16.80;99.90
35559;DHT22;21661;50.794;-1.066;2023-05-10T12:26:03;16.70;99.90
35559;DHT22;21661;50.794;-1.066;2023-05-10T12:28:33;16.40;99.90
35559;DHT22;21661;50.794;-1.066;2023-05-10T12:31:02;16.10;99.90
35559;DHT22;21661;50.794;-1.066;2023-05-10T12:33:36;15.70;99.90
35559;DHT22;21661;50.794;-1.066;2023-05-10T12:36:04;15.50;99.90
35559;DHT22;21661;50.794;-1.066;2023-05-10T12:38:33;15.40;99.90
35559;DHT22;21661;50.794;-1.066;2023-05-10T12:41:01;15.30;99.90
35559;DHT22;21661;50.794;-1.066;2023-05-10T12:43:26;15.30;99.90
35559;DHT22;21661;50.794;-1.066;2023-05-10T12:45:52;15.40;99.90
35559;DHT22;21661;50.794;-1.066;2023-05-10T12:48:18;15.50;99.90
35559;DHT22;21661;50.794;-1.066;2023-05-10T12:50:44;15.70;99.90
35559;DHT22;21661;50.794;-1.066;2023-05-10T12:53:09;15.90;99.90
35559;DHT22;21661;50.794;-1.066;2023-05-10T12:55:35;15.90;99.90
35559;DHT22;21661;50.794;-1.066;2023-05-10T12:58:00;16.10;99.90
35559;DHT22;21661;50.794;-1.066;2023-05-10T13:00:26;16.10;99.90
35559;DHT22;21661;50.794;-1.066;2023-05-10T13:02:52;16.30;99.90
35559;DHT22;21661;50.794;-1.066;2023-05-10T13:05:18;16.40;99.90
35559;DHT22;21661;50.794;-1.066;2023-05-10T13:07:44;16.40;99.90
35559;DHT22;21661;50.794;-1.066;2023-05-10T13:10:10;16.40;99.90
35559;DHT22;21661;50.794;-1.066;2023-05-10T13:12:36;16.30;99.90
35559;DHT22;21661;50.794;-1.066;2023-05-10T13:15:02;16.20;99.90
35559;DHT22;21661;50.794;-1.066;2023-05-10T13:17:28;16.30;99.90
35559;DHT22;21661;50.794;-1.066;2023-05-10T13:19:54;16.40;99.90
35559;DHT22;21661;50.794;-1.066;2023-05-10T13:22:20;16.40;99.90
35559;DHT22;21661;50.794;-1.066;2023-05-10T13:24:45;16.30;99.90
35559;DHT22;21661;50.794;-1.066;2023-05-10T13:27:11;16.30;99.90
35559;DHT22;21661;50.794;-1.066;2023-05-10T13:29:36;16.40;99.90
35559;DHT22;21661;50.794;-1.066;2023-05-10T13:32:02;16.20;99.90
35559;DHT22;21661;50.794;-1.066;2023-05-10T13:34:28;16.10;99.90
35559;DHT22;21661;50.794;-1.066;2023-05-10T13:36:53;16.10;99.90
35559;DHT22;21661;50.794;-1.066;2023-05-10T13:39:21;16.30;99.90
35559;DHT22;21661;50.794;-1.066;2023-05-10T13:41:46;16.40;99.90
35559;DHT22;21661;50.794;-1.066;2023-05-10T13:44:13;16.50;99.90
35559;DHT22;21661;50.794;-1.066;2023-05-10T13:46:40;16.70;99.90
35559;DHT22;21661;50.794;-1.066;2023-05-10T13:49:06;17.00;99.90
35559;DHT22;21661;50.794;-1.066;2023-05-10T13:51:32;17.30;99.90
35559;DHT22;21661;50.794;-1.066;2023-05-10T13:53:58;17.40;99.90
35559;DHT22;21661;50.794;-1.066;2023-05-10T13:56:24;17.30;99.90
35559;DHT22;21661;50.794;-1.066;2023-05-10T13:58:49;17.20;99.90
35559;DHT22;21661;50.794;-1.066;2023-05-10T14:01:15;17.20;99.90
35559;DHT22;21661;50.794;-1.066;2023-05-10T14:03:41;17.20;99.90
35559;DHT22;21661;50.794;-1.066;2023-05-10T14:06:07;17.20;99.90
35559;DHT22;21661;50.794;-1.066;2023-05-10T14:08:34;17.30;99.90
35559;DHT22;21661;50.794;-1.066;2023-05-10T14:11:00;17.40;99.90
35559;DHT22;21661;50.794;-1.066;2023-05-10T14:13:25;17.30;99.90
35559;DHT22;21661;50.794;-1.066;2023-05-10T14:15:52;17.00;99.90
35559;DHT22;21661;50.794;-1.066;2023-05-10T14:18:18;16.70;99.90
35559;DHT22;21661;50.794;-1.066;2023-05-10T14:20:43;16.50;99.90
35559;DHT22;21661;50.794;-1.066;2023-05-10T14:23:09;16.30;99.90
35559;DHT22;21661;50.794;-1.066;2023-05-10T14:25:34;16.30;99.90
35559;DHT22;21661;50.794;-1.066;2023-05-10T14:28:04;16.20;99.90
35559;DHT22;21661;50.794;-1.066;2023-05-10T14:30:32;16.20;99.90
35559;DHT22;21661;50.794;-1.066;2023-05-10T14:33:00;16.30;99.90
35559;DHT22;21661;50.794;-1.066;2023-05-10T14:35:27;16.40;99.90
35559;DHT22;21661;50.794;-1.066;2023-05-10T14:37:52;16.50;99.90
35559;DHT22;21661;50.794;-1.066;2023-05-10T14:40:18;16.40;99.90
35559;DHT22;21661;50.794;-1.066;2023-05-10T14:42:44;16.50;99.90
35559;DHT22;21661;50.794;-1.066;2023-05-10T14:45:10;16.70;99.90
35559;DHT22;21661;50.794;-1.066;2023-05-10T14:47:36;16.80;99.90
35559;DHT22;21661;50.794;-1.066;2023-05-10T14:50:01;16.90;99.90
35559;DHT22;21661;50.794;-1.066;2023-05-10T14:52:27;16.90;99.90
35559;DHT22;21661;50.794;-1.066;2023-05-10T14:54:53;16.80;99.90
35559;DHT22;21661;50.794;-1.066;2023-05-10T14:57:18;16.80;99.90
35559;DHT22;21661;50.794;-1.066;2023-05-10T14:59:44;16.90;99.90
35559;DHT22;21661;50.794;-1.066;2023-05-10T15:02:10;16.90;99.90
35559;DHT22;21661;50.794;-1.066;2023-05-10T15:04:36;16.80;99.90
35559;DHT22;21661;50.794;-1.066;2023-05-10T15:07:01;16.70;99.90
35559;DHT22;21661;50.794;-1.066;2023-05-10T15:09:27;16.50;99.90
35559;DHT22;21661;50.794;-1.066;2023-05-10T15:11:53;16.30;99.90
35559;DHT22;21661;50.794;-1.066;2023-05-10T15:14:19;16.10;99.90
35559;DHT22;21661;50.794;-1.066;2023-05-10T15:16:44;16.00;99.90
35559;DHT22;21661;50.794;-1.066;2023-05-10T15:19:10;15.90;99.90
35559;DHT22;21661;50.794;-1.066;2023-05-10T15:21:36;15.80;99.90
35559;DHT22;21661;50.794;-1.066;2023-05-10T15:24:07;15.80;99.90
35559;DHT22;21661;50.794;-1.066;2023-05-10T15:26:33;15.80;99.90
35559;DHT22;21661;50.794;-1.066;2023-05-10T15:28:58;15.60;99.90
35559;DHT22;21661;50.794;-1.066;2023-05-10T15:31:24;15.50;99.90
35559;DHT22;21661;50.794;-1.066;2023-05-10T15:33:50;15.40;99.90
35559;DHT22;21661;50.794;-1.066;2023-05-10T15:36:15;15.40;99.90
35559;DHT22;21661;50.794;-1.066;2023-05-10T15:38:43;15.40;99.90
35559;DHT22;21661;50.794;-1.066;2023-05-10T15:41:09;15.50;99.90
35559;DHT22;21661;50.794;-1.066;2023-05-10T15:43:34;15.70;99.90
35559;DHT22;21661;50.794;-1.066;2023-05-10T15:46:00;16.00;99.90